sensor_id;sensor_type;location;lat;lon;timestamp;temperature;humidity
56436;DHT22;42335;44.872;20.658;2023-04-08T00:01:04;179.40;2252.80
56436;DHT22;42335;44.872;20.658;2023-04-08T00:03:31;179.40;2252.80
56436;DHT22;42335;44.872;20.658;2023-04-08T00:05:56;179.40;2252.80
56436;DHT22;42335;44.872;20.658;2023-04-08T00:08:22;179.40;2252.80
56436;DHT22;42335;44.872;20.658;2023-04-08T00:10:48;179.40;2252.80
56436;DHT22;42335;44.872;20.658;2023-04-08T00:13:14;179.30;2252.80
56436;DHT22;42335;44.872;20.658;2023-04-08T00:15:40;179.30;2252.80
56436;DHT22;42335;44.872;20.658;2023-04-08T00:18:06;179.30;2252.80
56436;DHT22;42335;44.872;20.658;2023-04-08T00:20:32;179.20;2252.80
56436;DHT22;42335;44.872;20.658;2023-04-08T00:22:58;179.40;2252.80
56436;DHT22;42335;44.872;20.658;2023-04-08T00:25:24;179.30;2252.80
56436;DHT22;42335;44.872;20.658;2023-04-08T00:27:49;179.40;2252.80
56436;DHT22;42335;44.872;20.658;2023-04-08T00:30:15;179.40;2252.80
56436;DHT22;42335;44.872;20.658;2023-04-08T00:32:41;179.30;2252.80
56436;DHT22;42335;44.872;20.658;2023-04-08T00:35:07;179.30;2252.80
56436;DHT22;42335;44.872;20.658;2023-04-08T00:37:33;179.20;2252.80
56436;DHT22;42335;44.872;20.658;2023-04-08T00:39:59;179.20;2252.80
56436;DHT22;42335;44.872;20.658;2023-04-08T00:42:25;179.30;2252.80
56436;DHT22;42335;44.872;20.658;2023-04-08T00:44:51;179.30;2252.80
56436;DHT22;42335;44.872;20.658;2023-04-08T00:47:16;179.20;2252.80
56436;DHT22;42335;44.872;20.658;2023-04-08T00:49:44;179.30;2252.80
56436;DHT22;42335;44.872;20.658;2023-04-08T00:52:10;179.30;2252.80
56436;DHT22;42335;44.872;20.658;2023-04-08T00:54:36;179.30;2252.80
56436;DHT22;42335;44.872;20.658;2023-04-08T00:57:03;179.60;2252.80
56436;DHT22;42335;44.872;20.658;2023-04-08T00:59:29;179.30;2252.80
56436;DHT22;42335;44.872;20.658;2023-04-08T01:04:36;179.30;2252.80
56436;DHT22;42335;44.872;20.658;2023-04-08T01:07:21;179.30;2252.80
56436;DHT22;42335;44.872;20.658;2023-04-08T01:09:52;179.40;2252.80
56436;DHT22;42335;44.872;20.658;2023-04-08T01:12:28;179.30;2252.80
56436;DHT22;42335;44.872;20.658;2023-04-08T01:15:05;179.30;2252.80
56436;DHT22;42335;44.872;20.658;2023-04-08T01:17:32;179.30;2252.80
56436;DHT22;42335;44.872;20.658;2023-04-08T01:20:00;179.30;2252.80
56436;DHT22;42335;44.872;20.658;2023-04-08T01:25:22;179.30;2252.80
56436;DHT22;42335;44.872;20.658;2023-04-08T01:27:49;179.30;2252.80
56436;DHT22;42335;44.872;20.658;2023-04-08T01:30:18;179.40;2252.80
56436;DHT22;42335;44.872;20.658;2023-04-08T01:32:45;179.40;2252.80
56436;DHT22;42335;44.872;20.658;2023-04-08T01:35:12;179.40;2252.80
56436;DHT22;42335;44.872;20.658;2023-04-08T01:37:40;179.50;2252.80
56436;DHT22;42335;44.872;20.658;2023-04-08T01:40:07;179.50;2252.80
56436;DHT22;42335;44.872;20.658;2023-04-08T01:42:35;179.50;2252.80
56436;DHT22;42335;44.872;20.658;2023-04-08T01:45:03;179.40;2252.80
56436;DHT22;42335;44.872;20.658;2023-04-08T01:47:30;179.40;2252.80
56436;DHT22;42335;44.872;20.658;2023-04-08T01:49:57;179.20;2252.80
56436;DHT22;42335;44.872;20.658;2023-04-08T01:52:24;179.20;2252.80
56436;DHT22;42335;44.872;20.658;2023-04-08T01:54:51;154.50;2252.80
56436;DHT22;42335;44.872;20.658;2023-04-08T01:57:23;154.50;2252.80
56436;DHT22;42335;44.872;20.658;2023-04-08T01:59:51;154.40;2252.80
56436;DHT22;42335;44.872;20.658;2023-04-08T02:02:19;154.40;2252.80
56436;DHT22;42335;44.872;20.658;2023-04-08T02:04:47;154.50;2252.80
56436;DHT22;42335;44.872;20.658;2023-04-08T02:07:13;154.50;2252.80
56436;DHT22;42335;44.872;20.658;2023-04-08T02:09:40;179.20;2252.80
56436;DHT22;42335;44.872;20.658;2023-04-08T02:12:06;154.50;2252.80
56436;DHT22;42335;44.872;20.658;2023-04-08T02:14:32;179.20;2252.80
56436;DHT22;42335;44.872;20.658;2023-04-08T02:17:12;154.50;2252.80
56436;DHT22;42335;44.872;20.658;2023-04-08T02:19:51;154.50;2252.80
56436;DHT22;42335;44.872;20.658;2023-04-08T02:22:39;154.50;2252.80
56436;DHT22;42335;44.872;20.658;2023-04-08T02:25:13;154.50;2252.80
56436;DHT22;42335;44.872;20.658;2023-04-08T02:27:39;154.50;2252.80
56436;DHT22;42335;44.872;20.658;2023-04-08T02:30:07;154.50;2252.80
56436;DHT22;42335;44.872;20.658;2023-04-08T02:32:35;154.40;2252.80
56436;DHT22;42335;44.872;20.658;2023-04-08T02:35:01;154.40;2252.80
56436;DHT22;42335;44.872;20.658;2023-04-08T02:37:29;154.40;2252.80
56436;DHT22;42335;44.872;20.658;2023-04-08T02:39:55;154.40;2252.80
56436;DHT22;42335;44.872;20.658;2023-04-08T02:42:20;154.50;2252.80
56436;DHT22;42335;44.872;20.658;2023-04-08T02:44:46;154.50;2252.80
56436;DHT22;42335;44.872;20.658;2023-04-08T02:47:12;179.20;2252.80
56436;DHT22;42335;44.872;20.658;2023-04-08T02:49:38;179.20;2252.80
56436;DHT22;42335;44.872;20.658;2023-04-08T02:52:03;179.20;2252.80
56436;DHT22;42335;44.872;20.658;2023-04-08T02:54:29;179.30;2252.80
56436;DHT22;42335;44.872;20.658;2023-04-08T02:56:56;179.30;2252.80
56436;DHT22;42335;44.872;20.658;2023-04-08T02:59:22;179.40;2252.80
56436;DHT22;42335;44.872;20.658;2023-04-08T03:01:47;179.40;2252.80
56436;DHT22;42335;44.872;20.658;2023-04-08T03:04:13;179.40;2252.80
56436;DHT22;42335;44.872;20.658;2023-04-08T03:06:39;179.40;2252.80
56436;DHT22;42335;44.872;20.658;2023-04-08T03:09:05;179.40;2252.80
56436;DHT22;42335;44.872;20.658;2023-04-08T03:11:31;179.40;2252.80
56436;DHT22;42335;44.872;20.658;2023-04-08T03:13:56;179.20;2252.80
56436;DHT22;42335;44.872;20.658;2023-04-08T03:16:22;179.20;2252.80
56436;DHT22;42335;44.872;20.658;2023-04-08T03:18:51;179.20;2252.80
56436;DHT22;42335;44.872;20.658;2023-04-08T03:21:17;154.50;2252.80
56436;DHT22;42335;44.872;20.658;2023-04-08T03:23:43;154.50;2252.80
56436;DHT22;42335;44.872;20.658;2023-04-08T03:26:09;154.50;2252.80
56436;DHT22;42335;44.872;20.658;2023-04-08T03:28:34;154.50;2252.80
56436;DHT22;42335;44.872;20.658;2023-04-08T03:31:02;154.40;2252.80
56436;DHT22;42335;44.872;20.658;2023-04-08T03:33:28;154.50;2252.80
56436;DHT22;42335;44.872;20.658;2023-04-08T03:35:54;154.50;2252.80
56436;DHT22;42335;44.872;20.658;2023-04-08T03:38:19;179.20;2252.80
56436;DHT22;42335;44.872;20.658;2023-04-08T03:40:45;179.20;2252.80
56436;DHT22;42335;44.872;20.658;2023-04-08T03:43:11;179.20;2252.80
56436;DHT22;42335;44.872;20.658;2023-04-08T03:45:37;179.20;2252.80
56436;DHT22;42335;44.872;20.658;2023-04-08T03:48:03;154.50;2252.80
56436;DHT22;42335;44.872;20.658;2023-04-08T03:50:29;154.40;2252.80
56436;DHT22;42335;44.872;20.658;2023-04-08T03:52:55;154.40;2252.80
56436;DHT22;42335;44.872;20.658;2023-04-08T03:55:20;154.30;2252.80
56436;DHT22;42335;44.872;20.658;2023-04-08T03:57:46;154.40;2252.80
56436;DHT22;42335;44.872;20.658;2023-04-08T04:00:12;154.40;2252.80
56436;DHT22;42335;44.872;20.658;2023-04-08T04:02:38;154.40;2252.80
56436;DHT22;42335;44.872;20.658;2023-04-08T04:05:05;154.30;2252.80
56436;DHT22;42335;44.872;20.658;2023-04-08T04:07:30;154.40;2252.80
56436;DHT22;42335;44.872;20.658;2023-04-08T04:09:56;154.20;2252.80
56436;DHT22;42335;44.872;20.658;2023-04-08T04:12:23;154.20;2252.80
56436;DHT22;42335;44.872;20.658;2023-04-08T04:14:48;154.30;2252.80
56436;DHT22;42335;44.872;20.658;2023-04-08T04:17:14;154.30;2252.80
56436;DHT22;42335;44.872;20.658;2023-04-08T04:19:40;154.20;2252.80
56436;DHT22;42335;44.872;20.658;2023-04-08T04:22:06;154.30;2252.80
56436;DHT22;42335;44.872;20.658;2023-04-08T04:24:32;154.30;2252.80
56436;DHT22;42335;44.872;20.658;2023-04-08T04:26:58;154.30;2252.80
56436;DHT22;42335;44.872;20.658;2023-04-08T04:29:23;154.20;2252.80
56436;DHT22;42335;44.872;20.658;2023-04-08T04:31:49;154.30;2252.80
56436;DHT22;42335;44.872;20.658;2023-04-08T04:34:15;154.30;2252.80
56436;DHT22;42335;44.872;20.658;2023-04-08T04:36:40;154.40;2252.80
56436;DHT22;42335;44.872;20.658;2023-04-08T04:39:06;154.40;2252.80
56436;DHT22;42335;44.872;20.658;2023-04-08T04:41:32;154.30;2252.80
56436;DHT22;42335;44.872;20.658;2023-04-08T04:43:59;154.30;2252.80
56436;DHT22;42335;44.872;20.658;2023-04-08T04:46:25;154.20;2252.80
56436;DHT22;42335;44.872;20.658;2023-04-08T04:48:51;154.10;2252.80
56436;DHT22;42335;44.872;20.658;2023-04-08T04:51:18;154.20;2252.80
56436;DHT22;42335;44.872;20.658;2023-04-08T04:53:43;154.10;2252.80
56436;DHT22;42335;44.872;20.658;2023-04-08T04:56:09;154.20;2252.80
56436;DHT22;42335;44.872;20.658;2023-04-08T04:58:35;154.20;2252.80
56436;DHT22;42335;44.872;20.658;2023-04-08T05:01:01;154.30;2252.80
56436;DHT22;42335;44.872;20.658;2023-04-08T05:03:26;154.30;2252.80
56436;DHT22;42335;44.872;20.658;2023-04-08T05:05:53;154.40;2252.80
56436;DHT22;42335;44.872;20.658;2023-04-08T05:08:19;154.50;2252.80
56436;DHT22;42335;44.872;20.658;2023-04-08T05:10:45;179.20;2252.80
56436;DHT22;42335;44.872;20.658;2023-04-08T05:13:11;179.20;2252.80
56436;DHT22;42335;44.872;20.658;2023-04-08T05:15:37;179.30;2252.80
56436;DHT22;42335;44.872;20.658;2023-04-08T05:18:03;179.30;2252.80
56436;DHT22;42335;44.872;20.658;2023-04-08T05:20:28;179.40;2252.80
56436;DHT22;42335;44.872;20.658;2023-04-08T05:22:54;179.20;2252.80
56436;DHT22;42335;44.872;20.658;2023-04-08T05:25:20;179.40;2252.80
56436;DHT22;42335;44.872;20.658;2023-04-08T05:27:46;179.40;2252.80
56436;DHT22;42335;44.872;20.658;2023-04-08T05:30:12;179.50;2252.80
56436;DHT22;42335;44.872;20.658;2023-04-08T05:32:37;179.60;2252.80
56436;DHT22;42335;44.872;20.658;2023-04-08T05:35:03;179.40;2252.80
56436;DHT22;42335;44.872;20.658;2023-04-08T05:37:29;179.40;2252.80
56436;DHT22;42335;44.872;20.658;2023-04-08T05:39:55;179.60;2252.80
56436;DHT22;42335;44.872;20.658;2023-04-08T05:42:21;179.70;2252.80
56436;DHT22;42335;44.872;20.658;2023-04-08T05:44:47;179.80;2252.80
56436;DHT22;42335;44.872;20.658;2023-04-08T05:47:12;179.80;2252.80
56436;DHT22;42335;44.872;20.658;2023-04-08T05:49:39;179.80;2252.80
56436;DHT22;42335;44.872;20.658;2023-04-08T05:52:05;204.80;2252.80
56436;DHT22;42335;44.872;20.658;2023-04-08T05:54:31;179.90;2252.80
56436;DHT22;42335;44.872;20.658;2023-04-08T05:56:57;180.10;2252.80
56436;DHT22;42335;44.872;20.658;2023-04-08T05:59:23;180.00;2252.80
56436;DHT22;42335;44.872;20.658;2023-04-08T06:01:48;179.90;2252.80
56436;DHT22;42335;44.872;20.658;2023-04-08T06:04:14;179.90;2252.80
56436;DHT22;42335;44.872;20.658;2023-04-08T06:06:42;180.00;2252.80
56436;DHT22;42335;44.872;20.658;2023-04-08T06:09:08;204.80;2252.80
56436;DHT22;42335;44.872;20.658;2023-04-08T06:11:34;204.80;2252.80
56436;DHT22;42335;44.872;20.658;2023-04-08T06:14:00;180.10;2252.80
56436;DHT22;42335;44.872;20.658;2023-04-08T06:16:26;204.80;2252.80
56436;DHT22;42335;44.872;20.658;2023-04-08T06:18:52;205.00;2252.80
56436;DHT22;42335;44.872;20.658;2023-04-08T06:21:17;205.10;2252.80
56436;DHT22;42335;44.872;20.658;2023-04-08T06:23:43;205.10;2252.80
56436;DHT22;42335;44.872;20.658;2023-04-08T06:26:09;205.20;2252.80
56436;DHT22;42335;44.872;20.658;2023-04-08T06:28:34;205.30;2252.80
56436;DHT22;42335;44.872;20.658;2023-04-08T06:31:00;205.50;2252.80
56436;DHT22;42335;44.872;20.658;2023-04-08T06:33:26;205.60;2252.80
56436;DHT22;42335;44.872;20.658;2023-04-08T06:36:03;205.70;2252.80
56436;DHT22;42335;44.872;20.658;2023-04-08T06:38:29;205.70;2252.80
56436;DHT22;42335;44.872;20.658;2023-04-08T06:41:00;230.40;2252.80
56436;DHT22;42335;44.872;20.658;2023-04-08T06:43:26;230.50;2252.80
56436;DHT22;42335;44.872;20.658;2023-04-08T06:45:52;230.50;2252.80
56436;DHT22;42335;44.872;20.658;2023-04-08T06:48:18;230.40;2252.80
56436;DHT22;42335;44.872;20.658;2023-04-08T06:50:43;230.60;2252.80
56436;DHT22;42335;44.872;20.658;2023-04-08T06:53:09;230.70;2252.80
56436;DHT22;42335;44.872;20.658;2023-04-08T06:55:35;230.80;2252.80
56436;DHT22;42335;44.872;20.658;2023-04-08T06:58:00;230.90;2252.80
56436;DHT22;42335;44.872;20.658;2023-04-08T07:00:26;231.00;2252.80
56436;DHT22;42335;44.872;20.658;2023-04-08T07:02:52;231.10;2252.80
56436;DHT22;42335;44.872;20.658;2023-04-08T07:05:18;231.10;2252.80
56436;DHT22;42335;44.872;20.658;2023-04-08T07:07:43;231.30;2252.80
56436;DHT22;42335;44.872;20.658;2023-04-08T07:10:09;256.10;2252.80
56436;DHT22;42335;44.872;20.658;2023-04-08T07:12:35;256.10;2252.80
56436;DHT22;42335;44.872;20.658;2023-04-08T07:15:00;256.10;2252.80
56436;DHT22;42335;44.872;20.658;2023-04-08T07:17:26;256.30;2252.80
56436;DHT22;42335;44.872;20.658;2023-04-08T07:19:52;256.60;2252.80
56436;DHT22;42335;44.872;20.658;2023-04-08T07:22:18;256.70;2252.80
56436;DHT22;42335;44.872;20.658;2023-04-08T07:24:44;256.90;2252.80
56436;DHT22;42335;44.872;20.658;2023-04-08T07:27:14;281.60;2278.40
56436;DHT22;42335;44.872;20.658;2023-04-08T07:29:41;281.70;2278.40
56436;DHT22;42335;44.872;20.658;2023-04-08T07:32:07;282.00;2278.40
56436;DHT22;42335;44.872;20.658;2023-04-08T07:34:36;282.10;2278.40
56436;DHT22;42335;44.872;20.658;2023-04-08T07:37:02;307.20;2304.00
56436;DHT22;42335;44.872;20.658;2023-04-08T07:39:28;307.40;2304.00
56436;DHT22;42335;44.872;20.658;2023-04-08T07:41:53;307.80;2304.00
56436;DHT22;42335;44.872;20.658;2023-04-08T07:44:19;308.10;2304.00
56436;DHT22;42335;44.872;20.658;2023-04-08T07:46:45;308.00;2304.00
56436;DHT22;42335;44.872;20.658;2023-04-08T07:49:15;308.10;2304.00
56436;DHT22;42335;44.872;20.658;2023-04-08T07:51:40;308.00;2304.00
56436;DHT22;42335;44.872;20.658;2023-04-08T07:54:06;332.90;2329.60
56436;DHT22;42335;44.872;20.658;2023-04-08T07:56:32;332.90;2329.60
56436;DHT22;42335;44.872;20.658;2023-04-08T07:58:58;333.20;2329.60
56436;DHT22;42335;44.872;20.658;2023-04-08T08:01:23;333.00;2329.60
56436;DHT22;42335;44.872;20.658;2023-04-08T08:03:50;333.10;2329.60
56436;DHT22;42335;44.872;20.658;2023-04-08T08:06:16;333.20;2329.60
56436;DHT22;42335;44.872;20.658;2023-04-08T08:08:42;333.60;2329.60
56436;DHT22;42335;44.872;20.658;2023-04-08T08:11:08;333.50;2329.60
56436;DHT22;42335;44.872;20.658;2023-04-08T08:13:33;333.40;2329.60
56436;DHT22;42335;44.872;20.658;2023-04-08T08:15:59;358.80;2329.60
56436;DHT22;42335;44.872;20.658;2023-04-08T08:45:20;409.70;1740.80
56436;DHT22;42335;44.872;20.658;2023-04-08T08:47:46;384.90;1740.80
56436;DHT22;42335;44.872;20.658;2023-04-08T17:21:30;282.30;2278.40
56436;DHT22;42335;44.872;20.658;2023-04-08T17:23:56;281.80;2278.40
56436;DHT22;42335;44.872;20.658;2023-04-08T17:26:22;282.20;2278.40
56436;DHT22;42335;44.872;20.658;2023-04-08T17:28:48;281.80;2278.40
56436;DHT22;42335;44.872;20.658;2023-04-08T17:31:14;281.80;2278.40
56436;DHT22;42335;44.872;20.658;2023-04-08T17:55:36;281.70;2278.40
56436;DHT22;42335;44.872;20.658;2023-04-08T17:58:02;256.80;2252.80
56436;DHT22;42335;44.872;20.658;2023-04-08T18:00:28;256.70;2252.80
56436;DHT22;42335;44.872;20.658;2023-04-08T18:02:54;256.80;2252.80
56436;DHT22;42335;44.872;20.658;2023-04-08T18:05:21;256.50;2252.80
56436;DHT22;42335;44.872;20.658;2023-04-08T18:07:47;256.80;2252.80
56436;DHT22;42335;44.872;20.658;2023-04-08T18:10:12;256.50;2252.80
56436;DHT22;42335;44.872;20.658;2023-04-08T18:12:38;256.40;2252.80
56436;DHT22;42335;44.872;20.658;2023-04-08T18:15:04;256.50;2252.80
56436;DHT22;42335;44.872;20.658;2023-04-08T18:19:57;256.60;2252.80
56436;DHT22;42335;44.872;20.658;2023-04-08T18:22:23;256.20;2252.80
56436;DHT22;42335;44.872;20.658;2023-04-08T18:24:49;256.20;2252.80
56436;DHT22;42335;44.872;20.658;2023-04-08T18:27:14;256.20;2252.80
56436;DHT22;42335;44.872;20.658;2023-04-08T18:29:41;256.10;2252.80
56436;DHT22;42335;44.872;20.658;2023-04-08T18:32:07;256.10;2252.80
56436;DHT22;42335;44.872;20.658;2023-04-08T18:34:32;256.00;2252.80
56436;DHT22;42335;44.872;20.658;2023-04-08T18:36:58;256.00;2252.80
56436;DHT22;42335;44.872;20.658;2023-04-08T18:39:25;256.00;2252.80
56436;DHT22;42335;44.872;20.658;2023-04-08T18:41:51;256.00;2252.80
56436;DHT22;42335;44.872;20.658;2023-04-08T18:44:17;256.00;2252.80
56436;DHT22;42335;44.872;20.658;2023-04-08T18:46:43;231.30;2252.80
56436;DHT22;42335;44.872;20.658;2023-04-08T18:49:10;256.00;2252.80
56436;DHT22;42335;44.872;20.658;2023-04-08T18:51:35;256.00;2252.80
56436;DHT22;42335;44.872;20.658;2023-04-08T18:54:01;231.30;2252.80
56436;DHT22;42335;44.872;20.658;2023-04-08T18:56:27;231.30;2252.80
56436;DHT22;42335;44.872;20.658;2023-04-08T18:58:52;231.30;2252.80
56436;DHT22;42335;44.872;20.658;2023-04-08T19:01:19;231.30;2252.80
56436;DHT22;42335;44.872;20.658;2023-04-08T19:03:44;231.30;2252.80
56436;DHT22;42335;44.872;20.658;2023-04-08T19:06:11;231.30;2252.80
56436;DHT22;42335;44.872;20.658;2023-04-08T19:08:37;256.00;2252.80
56436;DHT22;42335;44.872;20.658;2023-04-08T19:11:04;256.00;2252.80
56436;DHT22;42335;44.872;20.658;2023-04-08T19:13:30;256.00;2252.80
56436;DHT22;42335;44.872;20.658;2023-04-08T19:15:56;231.30;2252.80
56436;DHT22;42335;44.872;20.658;2023-04-08T19:18:22;231.30;2252.80
56436;DHT22;42335;44.872;20.658;2023-04-08T19:20:48;231.30;2252.80
56436;DHT22;42335;44.872;20.658;2023-04-08T19:23:13;231.20;2252.80
56436;DHT22;42335;44.872;20.658;2023-04-08T19:25:40;231.20;2252.80
56436;DHT22;42335;44.872;20.658;2023-04-08T19:28:06;231.20;2252.80
56436;DHT22;42335;44.872;20.658;2023-04-08T19:30:37;231.20;2252.80
56436;DHT22;42335;44.872;20.658;2023-04-08T19:33:06;231.30;2252.80
56436;DHT22;42335;44.872;20.658;2023-04-08T19:35:35;231.30;2252.80
56436;DHT22;42335;44.872;20.658;2023-04-08T19:38:01;231.20;2252.80
56436;DHT22;42335;44.872;20.658;2023-04-08T19:40:27;231.30;2252.80
56436;DHT22;42335;44.872;20.658;2023-04-08T19:42:53;231.30;2252.80
56436;DHT22;42335;44.872;20.658;2023-04-08T19:45:18;231.30;2252.80
56436;DHT22;42335;44.872;20.658;2023-04-08T19:47:44;231.30;2252.80
56436;DHT22;42335;44.872;20.658;2023-04-08T19:50:11;231.30;2252.80
56436;DHT22;42335;44.872;20.658;2023-04-08T19:52:37;231.30;2252.80
56436;DHT22;42335;44.872;20.658;2023-04-08T19:55:05;231.30;2252.80
56436;DHT22;42335;44.872;20.658;2023-04-08T19:57:31;231.30;2252.80
56436;DHT22;42335;44.872;20.658;2023-04-08T19:59:56;231.30;2252.80
56436;DHT22;42335;44.872;20.658;2023-04-08T20:02:22;231.30;2252.80
56436;DHT22;42335;44.872;20.658;2023-04-08T20:04:49;231.30;2252.80
56436;DHT22;42335;44.872;20.658;2023-04-08T20:07:15;231.30;2252.80
56436;DHT22;42335;44.872;20.658;2023-04-08T20:09:41;231.30;2252.80
56436;DHT22;42335;44.872;20.658;2023-04-08T20:12:07;231.30;2252.80
56436;DHT22;42335;44.872;20.658;2023-04-08T20:14:34;231.30;2252.80
56436;DHT22;42335;44.872;20.658;2023-04-08T20:17:02;231.30;2252.80
56436;DHT22;42335;44.872;20.658;2023-04-08T20:19:29;256.20;2252.80
56436;DHT22;42335;44.872;20.658;2023-04-08T20:21:55;231.30;2252.80
56436;DHT22;42335;44.872;20.658;2023-04-08T20:24:22;231.20;2252.80
56436;DHT22;42335;44.872;20.658;2023-04-08T20:26:48;231.20;2252.80
56436;DHT22;42335;44.872;20.658;2023-04-08T20:29:14;231.20;2252.80
56436;DHT22;42335;44.872;20.658;2023-04-08T20:31:39;231.20;2252.80
56436;DHT22;42335;44.872;20.658;2023-04-08T20:34:05;231.20;2252.80
56436;DHT22;42335;44.872;20.658;2023-04-08T20:36:31;231.10;2252.80
56436;DHT22;42335;44.872;20.658;2023-04-08T20:38:58;231.10;2252.80
56436;DHT22;42335;44.872;20.658;2023-04-08T20:41:24;231.00;2252.80
56436;DHT22;42335;44.872;20.658;2023-04-08T20:43:52;231.00;2252.80
56436;DHT22;42335;44.872;20.658;2023-04-08T20:46:18;230.90;2252.80
56436;DHT22;42335;44.872;20.658;2023-04-08T20:48:44;230.90;2252.80
56436;DHT22;42335;44.872;20.658;2023-04-08T20:51:12;230.90;2252.80
56436;DHT22;42335;44.872;20.658;2023-04-08T20:53:39;230.90;2252.80
56436;DHT22;42335;44.872;20.658;2023-04-08T20:56:05;230.80;2252.80
56436;DHT22;42335;44.872;20.658;2023-04-08T20:58:31;230.80;2252.80
56436;DHT22;42335;44.872;20.658;2023-04-08T21:00:57;230.80;2252.80
56436;DHT22;42335;44.872;20.658;2023-04-08T21:03:24;230.80;2252.80
56436;DHT22;42335;44.872;20.658;2023-04-08T21:05:51;230.70;2252.80
56436;DHT22;42335;44.872;20.658;2023-04-08T21:08:17;230.70;2252.80
56436;DHT22;42335;44.872;20.658;2023-04-08T21:10:42;230.70;2252.80
56436;DHT22;42335;44.872;20.658;2023-04-08T21:13:08;230.70;2252.80
56436;DHT22;42335;44.872;20.658;2023-04-08T21:15:34;230.70;2252.80
56436;DHT22;42335;44.872;20.658;2023-04-08T21:18:00;230.70;2252.80
56436;DHT22;42335;44.872;20.658;2023-04-08T21:20:25;230.70;2252.80
56436;DHT22;42335;44.872;20.658;2023-04-08T21:22:51;230.60;2252.80
56436;DHT22;42335;44.872;20.658;2023-04-08T21:25:18;230.60;2252.80
56436;DHT22;42335;44.872;20.658;2023-04-08T21:27:43;230.60;2252.80
56436;DHT22;42335;44.872;20.658;2023-04-08T21:30:10;230.60;2252.80
56436;DHT22;42335;44.872;20.658;2023-04-08T21:32:36;230.60;2252.80
56436;DHT22;42335;44.872;20.658;2023-04-08T21:35:01;230.50;2252.80
56436;DHT22;42335;44.872;20.658;2023-04-08T21:37:27;230.50;2252.80
56436;DHT22;42335;44.872;20.658;2023-04-08T21:39:52;230.50;2252.80
56436;DHT22;42335;44.872;20.658;2023-04-08T21:42:21;230.50;2252.80
56436;DHT22;42335;44.872;20.658;2023-04-08T21:44:49;230.50;2252.80
56436;DHT22;42335;44.872;20.658;2023-04-08T21:47:15;230.40;2252.80
56436;DHT22;42335;44.872;20.658;2023-04-08T21:49:41;230.40;2252.80
56436;DHT22;42335;44.872;20.658;2023-04-08T21:52:07;230.50;2252.80
56436;DHT22;42335;44.872;20.658;2023-04-08T21:54:32;205.70;2252.80
56436;DHT22;42335;44.872;20.658;2023-04-08T21:56:58;205.70;2252.80
56436;DHT22;42335;44.872;20.658;2023-04-08T21:59:24;205.70;2252.80
56436;DHT22;42335;44.872;20.658;2023-04-08T22:01:50;205.70;2252.80
56436;DHT22;42335;44.872;20.658;2023-04-08T22:04:16;205.70;2252.80
56436;DHT22;42335;44.872;20.658;2023-04-08T22:06:44;205.70;2252.80
56436;DHT22;42335;44.872;20.658;2023-04-08T22:09:10;205.60;2252.80
56436;DHT22;42335;44.872;20.658;2023-04-08T22:11:38;205.60;2252.80
56436;DHT22;42335;44.872;20.658;2023-04-08T22:14:03;205.60;2252.80
56436;DHT22;42335;44.872;20.658;2023-04-08T22:16:29;205.50;2252.80
56436;DHT22;42335;44.872;20.658;2023-04-08T22:18:56;205.60;2252.80
56436;DHT22;42335;44.872;20.658;2023-04-08T22:21:22;205.60;2252.80
56436;DHT22;42335;44.872;20.658;2023-04-08T22:23:48;205.50;2252.80
56436;DHT22;42335;44.872;20.658;2023-04-08T22:26:13;205.50;2252.80
56436;DHT22;42335;44.872;20.658;2023-04-08T22:28:40;205.40;2252.80
56436;DHT22;42335;44.872;20.658;2023-04-08T22:31:10;205.40;2252.80
56436;DHT22;42335;44.872;20.658;2023-04-08T22:33:36;205.40;2252.80
56436;DHT22;42335;44.872;20.658;2023-04-08T22:36:02;205.40;2252.80
56436;DHT22;42335;44.872;20.658;2023-04-08T22:38:28;205.40;2252.80
56436;DHT22;42335;44.872;20.658;2023-04-08T22:40:53;205.40;2252.80
56436;DHT22;42335;44.872;20.658;2023-04-08T22:43:19;205.30;2252.80
56436;DHT22;42335;44.872;20.658;2023-04-08T22:45:45;205.30;2252.80
56436;DHT22;42335;44.872;20.658;2023-04-08T22:48:11;205.30;2252.80
56436;DHT22;42335;44.872;20.658;2023-04-08T22:50:36;205.30;2252.80
56436;DHT22;42335;44.872;20.658;2023-04-08T22:53:02;205.30;2252.80
56436;DHT22;42335;44.872;20.658;2023-04-08T22:55:29;205.20;2252.80
56436;DHT22;42335;44.872;20.658;2023-04-08T22:57:55;205.10;2252.80
56436;DHT22;42335;44.872;20.658;2023-04-08T23:00:20;205.10;2252.80
56436;DHT22;42335;44.872;20.658;2023-04-08T23:02:46;205.10;2252.80
56436;DHT22;42335;44.872;20.658;2023-04-08T23:05:12;205.10;2252.80
56436;DHT22;42335;44.872;20.658;2023-04-08T23:07:38;205.10;2252.80
56436;DHT22;42335;44.872;20.658;2023-04-08T23:10:04;205.00;2252.80
56436;DHT22;42335;44.872;20.658;2023-04-08T23:12:30;204.90;2252.80
56436;DHT22;42335;44.872;20.658;2023-04-08T23:14:56;204.90;2252.80
56436;DHT22;42335;44.872;20.658;2023-04-08T23:17:21;204.80;2252.80
56436;DHT22;42335;44.872;20.658;2023-04-08T23:19:47;204.80;2252.80
56436;DHT22;42335;44.872;20.658;2023-04-08T23:22:13;204.80;2252.80
56436;DHT22;42335;44.872;20.658;2023-04-08T23:24:39;180.10;2252.80
56436;DHT22;42335;44.872;20.658;2023-04-08T23:27:04;180.10;2252.80
56436;DHT22;42335;44.872;20.658;2023-04-08T23:29:30;180.10;2252.80
56436;DHT22;42335;44.872;20.658;2023-04-08T23:31:56;180.10;2252.80
56436;DHT22;42335;44.872;20.658;2023-04-08T23:34:22;180.00;2252.80
56436;DHT22;42335;44.872;20.658;2023-04-08T23:36:47;180.00;2252.80
56436;DHT22;42335;44.872;20.658;2023-04-08T23:39:13;179.90;2252.80
56436;DHT22;42335;44.872;20.658;2023-04-08T23:41:39;179.80;2252.80
56436;DHT22;42335;44.872;20.658;2023-04-08T23:44:05;179.80;2252.80
56436;DHT22;42335;44.872;20.658;2023-04-08T23:46:30;179.80;2252.80
56436;DHT22;42335;44.872;20.658;2023-04-08T23:48:56;179.80;2252.80
56436;DHT22;42335;44.872;20.658;2023-04-08T23:51:22;179.70;2252.80
56436;DHT22;42335;44.872;20.658;2023-04-08T23:53:47;179.70;2252.80
56436;DHT22;42335;44.872;20.658;2023-04-08T23:56:13;179.70;2252.80
56436;DHT22;42335;44.872;20.658;2023-04-08T23:58:39;179.60;2252.80
